Time;durP1;ratioP1;P1;durP2;ratioP2;P2;SDS_P1;SDS_P2;PMS_P1;PMS_P2;Temp;Humidity;BMP_temperature;BMP_pressure;BME280_temperature;BME280_humidity;BME280_pressure;Samples;Min_cycle;Max_cycle;Signal;HPM_P1;HPM_P2
2022/04/22 00:05:03;;;;;;;1.48;0.70;;;;;;;19.82;29.45;100735.28;16130916;19;129759;-56
2022/04/22 00:10:25;;;;;;;1.73;0.73;;;;;;;19.82;29.31;100734.44;16131546;19;131733;-56
2022/04/22 00:15:47;;;;;;;4.95;0.75;;;;;;;19.80;29.41;100734.69;16137192;19;132254;-55
2022/04/22 00:21:09;;;;;;;0.80;0.50;;;;;;;19.77;29.35;100734.38;16147591;19;130051;-55
2022/04/22 00:26:31;;;;;;;2.40;0.82;;;;;;;19.76;29.40;100727.16;16149181;19;129358;-56
2022/04/22 00:31:52;;;;;;;1.38;0.80;;;;;;;19.75;29.43;100736.56;16145320;19;129874;-51
2022/04/22 00:37:14;;;;;;;1.88;0.70;;;;;;;19.73;29.00;100730.44;16146209;19;130591;-55
2022/04/22 00:42:36;;;;;;;0.50;0.50;;;;;;;19.69;29.55;100721.78;16145481;19;129721;-54
2022/04/22 00:47:58;;;;;;;1.92;0.70;;;;;;;19.67;29.42;100716.50;16146348;19;129581;-55
2022/04/22 00:53:20;;;;;;;0.60;0.50;;;;;;;19.65;29.59;100710.38;16143166;19;128929;-56
2022/04/22 00:58:44;;;;;;;1.55;1.10;;;;;;;19.63;29.38;100706.19;16144567;19;129272;-54
2022/04/22 01:09:51;;;;;;;1.50;0.80;;;;;;;19.59;29.12;100700.28;16139321;19;130810;-53
2022/04/22 01:15:12;;;;;;;0.90;0.80;;;;;;;19.58;29.29;100693.06;16130455;19;129626;-56
2022/04/22 01:20:34;;;;;;;2.75;0.80;;;;;;;19.55;29.19;100682.50;16136223;19;130896;-56
2022/04/22 01:25:57;;;;;;;1.02;0.68;;;;;;;19.53;29.15;100685.53;16133249;19;130280;-55
2022/04/22 01:31:21;;;;;;;3.63;0.90;;;;;;;19.53;29.30;100687.47;16140723;19;129222;-52
2022/04/22 01:36:44;;;;;;;2.13;0.80;;;;;;;19.52;29.37;100683.00;16137604;19;131397;-55
2022/04/22 01:42:06;;;;;;;0.73;0.50;;;;;;;19.50;29.64;100683.28;16142979;19;130302;-55
2022/04/22 01:47:29;;;;;;;1.15;0.90;;;;;;;19.49;29.28;100675.19;16141081;19;129878;-56
2022/04/22 01:52:51;;;;;;;1.30;0.80;;;;;;;19.47;29.24;100686.56;16139434;19;129260;-55
2022/04/22 01:58:13;;;;;;;1.33;0.85;;;;;;;19.45;29.68;100674.03;16139044;19;129445;-56
2022/04/22 02:03:34;;;;;;;1.27;0.90;;;;;;;19.45;29.48;100679.56;16141293;19;129308;-55
2022/04/22 02:08:57;;;;;;;1.13;0.60;;;;;;;19.43;29.42;100676.25;16136082;19;130681;-55
2022/04/22 02:14:19;;;;;;;2.53;0.80;;;;;;;19.41;29.34;100670.13;16135553;19;129247;-53
2022/04/22 02:19:41;;;;;;;1.30;0.70;;;;;;;19.38;29.74;100666.75;16136942;19;129710;-52
2022/04/22 02:25:03;;;;;;;1.63;1.00;;;;;;;19.38;29.34;100660.38;16137544;19;130586;-56
2022/04/22 02:30:25;;;;;;;1.35;0.88;;;;;;;19.36;29.79;100662.56;16136226;19;130125;-55
2022/04/22 02:35:47;;;;;;;1.15;0.80;;;;;;;19.35;29.40;100660.88;16131869;19;129079;-56
2022/04/22 02:46:49;;;;;;;1.27;1.00;;;;;;;19.32;29.49;100655.84;16139540;19;129506;-53
2022/04/22 02:52:12;;;;;;;1.77;1.35;;;;;;;19.29;29.46;100657.22;16134234;19;130963;-56
2022/04/22 02:57:34;;;;;;;5.80;1.35;;;;;;;19.26;29.74;100649.41;16135768;19;129686;-56
2022/04/22 03:02:56;;;;;;;1.20;0.90;;;;;;;19.27;29.60;100633.59;16135723;19;129430;-54
2022/04/22 03:08:18;;;;;;;1.50;1.30;;;;;;;19.25;29.45;100639.41;16127533;19;130570;-54
2022/04/22 03:13:40;;;;;;;1.58;1.00;;;;;;;19.24;29.69;100626.63;16126389;19;129248;-56
2022/04/22 03:19:02;;;;;;;3.45;1.20;;;;;;;19.24;29.89;100625.81;16134977;19;128900;-55
2022/04/22 03:24:24;;;;;;;1.73;1.35;;;;;;;19.21;29.78;100630.75;16136150;19;129288;-54
2022/04/22 03:29:45;;;;;;;1.42;1.10;;;;;;;19.20;29.90;100617.97;16136784;19;129250;-56
2022/04/22 03:35:07;;;;;;;2.17;1.05;;;;;;;19.20;29.74;100625.44;16134197;19;129194;-54
2022/04/22 03:40:29;;;;;;;1.52;1.02;;;;;;;19.18;29.54;100628.47;16136718;19;130498;-52
2022/04/22 03:45:51;;;;;;;4.25;1.00;;;;;;;19.18;29.80;100622.09;16132792;19;130101;-54
2022/04/22 03:51:13;;;;;;;1.98;0.90;;;;;;;19.17;29.70;100625.97;16145590;19;130048;-55
2022/04/22 04:02:15;;;;;;;2.70;1.15;;;;;;;19.14;30.02;100620.91;16144810;19;129894;-55
2022/04/22 04:07:37;;;;;;;2.42;1.27;;;;;;;19.14;29.78;100623.69;16149656;19;130325;-54
2022/04/22 04:18:40;;;;;;;3.40;1.05;;;;;;;19.10;29.96;100619.75;16146844;19;128969;-54
2022/04/22 04:24:02;;;;;;;1.90;1.10;;;;;;;19.10;30.06;100623.38;16144012;19;129065;-54
2022/04/22 04:29:26;;;;;;;1.30;0.90;;;;;;;19.08;29.69;100623.59;16145000;19;129747;-53
2022/04/22 04:34:47;;;;;;;1.50;1.05;;;;;;;19.10;29.97;100614.19;16144519;19;129622;-56
2022/04/22 04:40:10;;;;;;;1.40;1.20;;;;;;;19.07;29.96;100630.28;16148237;19;129443;-54
2022/04/22 04:45:35;;;;;;;3.08;1.20;;;;;;;19.08;29.95;100637.47;16147155;19;129788;-56
2022/04/22 04:50:57;;;;;;;;;;;;;;;19.02;30.25;100623.81;16143885;19;130343;-56
2022/04/22 04:56:19;;;;;;;1.10;1.00;;;;;;;19.03;29.79;100619.94;16141844;19;129163;-53
2022/04/22 05:01:40;;;;;;;3.63;1.13;;;;;;;19.02;29.96;100619.09;16141643;19;129485;-56
2022/04/22 05:07:02;;;;;;;1.42;0.98;;;;;;;19.02;29.90;100619.09;16144232;19;129740;-57
2022/04/22 05:12:24;;;;;;;8.23;1.30;;;;;;;19.04;30.07;100621.63;16141972;19;128918;-57
2022/04/22 05:17:47;;;;;;;3.60;1.45;;;;;;;19.12;29.88;100612.88;16139643;19;130497;-56
2022/04/22 05:23:09;;;;;;;8.02;1.67;;;;;;;19.25;29.88;100605.28;16144119;19;129736;-54
2022/04/22 05:28:30;;;;;;;3.03;1.60;;;;;;;19.49;30.12;100617.78;16142883;19;129720;-56
2022/04/22 05:33:52;;;;;;;3.58;1.73;;;;;;;19.81;29.75;100619.78;16139621;19;131611;-56
2022/04/22 05:39:14;;;;;;;2.92;1.70;;;;;;;20.09;29.63;100622.56;16143038;19;130169;-56
2022/04/22 05:44:35;;;;;;;3.40;1.88;;;;;;;20.35;29.09;100620.88;16142506;19;130227;-55
2022/04/22 05:49:58;;;;;;;4.63;1.63;;;;;;;20.48;28.85;100619.56;16141908;19;129018;-55
2022/04/22 05:55:22;;;;;;;3.30;1.73;;;;;;;20.54;28.89;100621.28;16138483;19;129333;-56
2022/04/22 06:00:44;;;;;;;14.55;1.95;;;;;;;20.55;29.09;100622.13;16140034;19;129554;-58
2022/04/22 06:06:05;;;;;;;5.00;2.45;;;;;;;20.52;29.18;100623.50;16140044;19;129300;-59
2022/04/22 06:11:27;;;;;;;7.20;2.50;;;;;;;20.50;29.40;100622.91;16138181;19;130257;-59
2022/04/22 06:16:49;;;;;;;3.65;2.58;;;;;;;20.47;29.00;100615.09;16136128;19;130128;-59
2022/04/22 06:22:11;;;;;;;9.65;2.67;;;;;;;20.45;29.09;100620.09;16140091;19;130265;-58
2022/04/22 06:27:34;;;;;;;9.45;2.30;;;;;;;20.44;29.12;100615.63;16140962;19;129775;-57
2022/04/22 06:32:56;;;;;;;3.10;2.10;;;;;;;20.42;29.40;100618.69;16141587;19;129599;-58
2022/04/22 06:38:19;;;;;;;4.68;2.45;;;;;;;20.36;29.44;100613.34;16135929;19;129993;-58
2022/04/22 06:49:21;;;;;;;4.13;2.25;;;;;;;20.32;29.41;100612.22;16138043;19;130748;-59
2022/04/22 06:54:45;;;;;;;6.57;2.08;;;;;;;20.33;29.88;100609.19;16136106;19;129355;-58
2022/04/22 07:00:10;;;;;;;4.72;1.85;;;;;;;20.35;30.01;100608.91;16138773;19;129721;-59
2022/04/22 07:05:34;;;;;;;5.88;2.10;;;;;;;20.37;29.83;100603.94;16138949;19;131401;-58
2022/04/22 07:11:00;;;;;;;4.68;2.10;;;;;;;20.42;29.68;100606.75;16136170;19;130397;-59
2022/04/22 07:16:23;;;;;;;5.25;2.15;;;;;;;20.49;29.84;100595.41;16131909;19;129574;-59
2022/04/22 07:21:45;;;;;;;5.25;2.47;;;;;;;20.57;29.83;100594.91;16137781;19;129506;-58
2022/04/22 07:27:07;;;;;;;3.22;2.22;;;;;;;20.73;29.59;100602.25;16136104;19;129423;-59
2022/04/22 07:32:29;;;;;;;4.00;2.40;;;;;;;20.89;29.43;100589.28;16139142;19;130528;-57
2022/04/22 07:37:52;;;;;;;5.22;3.05;;;;;;;21.02;29.41;100587.13;16130965;19;129430;-59
2022/04/22 07:48:58;;;;;;;6.20;2.38;;;;;;;21.12;29.16;100595.50;16133853;19;129367;-58
2022/04/22 07:54:20;;;;;;;5.75;2.30;;;;;;;21.12;29.46;100594.66;16133119;19;129340;-58
2022/04/22 07:59:42;;;;;;;4.60;2.42;;;;;;;21.14;29.57;100596.09;16134765;19;131652;-58
2022/04/22 08:05:04;;;;;;;4.00;2.50;;;;;;;21.11;29.17;100585.50;16134390;19;128875;-58
2022/04/22 08:10:34;;;;;;;4.97;2.53;;;;;;;21.09;29.50;100582.13;16136431;19;129635;-58
2022/04/22 08:15:56;;;;;;;8.37;2.70;;;;;;;21.06;29.67;100574.31;16131539;19;129799;-59
2022/04/22 08:21:18;;;;;;;3.58;2.33;;;;;;;21.02;29.39;100567.66;16130730;19;128982;-59
2022/04/22 08:26:40;;;;;;;4.60;2.85;;;;;;;21.00;29.54;100569.88;16127946;19;129033;-59
2022/04/22 08:32:02;;;;;;;3.97;2.72;;;;;;;20.94;29.55;100563.44;16131281;19;129438;-58
2022/04/22 08:37:24;;;;;;;3.28;2.30;;;;;;;20.91;29.81;100561.19;16140200;19;129336;-59
2022/04/22 08:42:47;;;;;;;5.43;2.90;;;;;;;20.88;29.68;100553.41;16146484;19;130526;-58
2022/04/22 08:53:52;;;;;;;5.18;2.88;;;;;;;20.77;29.86;100558.09;16147753;19;129481;-59
2022/04/22 08:59:14;;;;;;;7.75;2.80;;;;;;;20.77;29.78;100555.31;16141664;19;129483;-59
2022/04/22 09:04:36;;;;;;;4.70;2.95;;;;;;;20.77;29.42;100541.41;16149490;19;129323;-59
2022/04/22 09:09:57;;;;;;;4.03;3.30;;;;;;;20.75;30.11;100543.59;16148021;19;129489;-59
2022/04/22 09:15:24;;;;;;;5.60;3.20;;;;;;;20.69;29.75;100537.16;16141444;19;129039;-58
2022/04/22 09:20:46;;;;;;;4.53;2.97;;;;;;;20.66;29.63;100529.34;16146372;19;130007;-59
2022/04/22 09:26:22;;;;;;;3.17;2.80;;;;;;;20.64;29.67;100523.22;16146026;19;129386;-59
2022/04/22 09:31:48;;;;;;;3.95;3.17;;;;;;;20.63;29.96;100510.44;16145461;19;129470;-58
2022/04/22 09:42:58;;;;;;;3.72;2.80;;;;;;;20.54;29.78;100504.56;16144297;19;130096;-59
2022/04/22 09:48:20;;;;;;;4.65;2.97;;;;;;;20.45;30.08;100501.47;16140776;19;129254;-59
2022/04/22 09:53:43;;;;;;;4.63;3.20;;;;;;;20.41;29.98;100505.06;16141262;19;129616;-58
2022/04/22 09:59:25;;;;;;;5.75;3.28;;;;;;;20.36;30.27;100507.78;16138137;19;129437;-57
2022/04/22 10:04:49;;;;;;;3.72;3.30;;;;;;;20.28;30.25;100492.47;16141052;19;129642;-58
2022/04/22 10:10:14;;;;;;;4.43;3.35;;;;;;;20.24;30.14;100491.34;16124633;19;130339;-59
2022/04/22 10:15:39;;;;;;;5.93;3.17;;;;;;;20.19;30.18;100489.34;16128747;19;129735;-58
2022/04/22 10:21:02;;;;;;;4.43;2.93;;;;;;;20.14;30.42;100498.47;16135387;19;129533;-59
2022/04/22 10:26:28;;;;;;;3.33;2.70;;;;;;;20.10;30.19;100494.59;16140048;19;129383;-59
2022/04/22 10:31:50;;;;;;;6.82;3.47;;;;;;;20.07;29.98;100494.25;16138801;19;130077;-59
2022/04/22 10:37:18;;;;;;;5.35;2.72;;;;;;;20.05;30.08;100480.66;16136664;19;129411;-59
2022/04/22 10:42:40;;;;;;;3.60;2.45;;;;;;;20.02;29.95;100481.19;16137588;19;129589;-59
2022/04/22 10:48:18;;;;;;;5.38;2.78;;;;;;;20.03;30.05;100480.06;16137956;19;129544;-58
2022/04/22 10:53:49;;;;;;;5.93;2.65;;;;;;;20.03;30.12;100470.91;16132095;19;130339;-59
2022/04/22 10:59:20;;;;;;;6.28;2.85;;;;;;;20.03;30.48;100473.69;16132095;19;129376;-59
2022/04/22 11:04:41;;;;;;;3.65;2.45;;;;;;;20.01;30.26;100473.94;16139545;19;130080;-58
2022/04/22 11:10:03;;;;;;;3.35;2.30;;;;;;;20.00;30.10;100475.03;16139290;19;129371;-59
2022/04/22 11:15:43;;;;;;;7.18;2.58;;;;;;;20.00;30.02;100475.03;16133475;19;129488;-59
2022/04/22 11:21:30;;;;;;;3.30;2.35;;;;;;;19.94;30.40;100468.59;16137439;19;128951;-58
2022/04/22 11:27:02;;;;;;;2.78;2.40;;;;;;;19.91;30.25;100457.19;16135850;19;128833;-59
2022/04/22 11:32:27;;;;;;;9.13;3.33;;;;;;;19.93;30.47;100466.09;16133141;19;129608;-60
2022/04/22 11:38:04;;;;;;;3.77;2.20;;;;;;;19.92;30.25;100469.97;16133389;19;129440;-58
2022/04/22 11:43:29;;;;;;;3.47;2.30;;;;;;;19.90;30.33;100461.06;16138333;19;129408;-58
2022/04/22 11:48:53;;;;;;;3.50;2.20;;;;;;;19.87;30.27;100462.44;16137679;19;131355;-59
2022/04/22 11:54:21;;;;;;;3.28;2.28;;;;;;;19.89;30.05;100457.47;16132434;19;128944;-58
2022/04/22 12:05:32;;;;;;;4.55;2.40;;;;;;;19.88;30.38;100453.00;16130327;19;129417;-58
2022/04/22 12:05:34;;;;;;;7.90;2.47;;;;;;;19.88;30.43;100452.19;16135994;19;129807;-59
2022/04/22 12:10:56;;;;;;;3.28;2.65;;;;;;;19.87;30.21;100445.78;16139125;19;129696;-58
2022/04/22 12:16:26;;;;;;;3.63;2.60;;;;;;;19.87;30.09;100436.63;16144894;19;129369;-59
2022/04/22 12:21:48;;;;;;;4.25;2.33;;;;;;;19.85;30.47;100442.44;16149536;19;129146;-55
2022/04/22 12:27:20;;;;;;;2.88;2.45;;;;;;;19.83;30.01;100437.16;16148941;19;132314;-58
2022/04/22 12:32:53;;;;;;;3.97;2.60;;;;;;;19.82;30.51;100432.72;16140596;19;130354;-57
2022/04/22 12:38:16;;;;;;;2.35;2.00;;;;;;;19.82;30.29;100429.09;16141775;19;129700;-57
2022/04/22 12:43:46;;;;;;;3.63;1.65;;;;;;;19.84;30.12;100419.41;16149393;19;130177;-58
2022/04/22 12:55:08;;;;;;;2.03;1.60;;;;;;;19.84;30.39;100399.13;16143723;19;129283;-58
2022/04/22 13:00:32;;;;;;;3.00;2.00;;;;;;;19.84;30.33;100394.44;16146462;19;129682;-58
2022/04/22 13:05:59;;;;;;;2.22;1.70;;;;;;;19.83;30.48;100387.19;16145822;19;128917;-58
2022/04/22 13:11:22;;;;;;;2.35;2.00;;;;;;;19.83;30.09;100384.41;16143945;19;129599;-56
2022/04/22 13:16:44;;;;;;;4.05;1.98;;;;;;;19.84;30.35;100380.53;16139967;19;129852;-56
2022/04/22 13:22:06;;;;;;;2.47;1.85;;;;;;;19.84;30.07;100374.13;16140735;19;129627;-56
2022/04/22 13:27:28;;;;;;;3.10;1.80;;;;;;;19.86;29.99;100365.56;16144625;19;129515;-58
2022/04/22 13:32:49;;;;;;;2.88;1.85;;;;;;;19.88;30.45;100355.03;16145697;19;129345;-58
2022/04/22 13:38:12;;;;;;;2.25;1.90;;;;;;;19.87;30.24;100350.59;16138164;19;129460;-57
2022/04/22 13:43:33;;;;;;;3.05;1.52;;;;;;;19.88;30.27;100355.03;16142074;19;129412;-58
2022/04/22 13:54:35;;;;;;;3.00;1.77;;;;;;;19.87;30.12;100345.03;16135595;19;129466;-58
2022/04/22 13:59:59;;;;;;;4.97;2.20;;;;;;;19.88;30.04;100341.97;16134570;19;130477;-57
2022/04/22 14:05:21;;;;;;;2.60;2.20;;;;;;;19.88;30.53;100328.09;16139166;19;130350;-58
2022/04/22 14:10:43;;;;;;;3.13;2.10;;;;;;;19.87;30.25;100325.59;16136696;19;129332;-58
2022/04/22 14:16:05;;;;;;;4.05;2.50;;;;;;;19.84;30.28;100324.19;16137223;19;129903;-59
2022/04/22 14:21:32;;;;;;;2.20;2.00;;;;;;;19.83;30.23;100319.72;16142062;19;129011;-57
2022/04/22 14:26:54;;;;;;;2.58;2.30;;;;;;;19.81;30.14;100319.19;16138753;19;129381;-59
2022/04/22 14:32:31;;;;;;;5.57;2.13;;;;;;;19.79;30.48;100316.66;16138279;19;129492;-58
2022/04/22 14:37:55;;;;;;;2.97;2.30;;;;;;;19.80;30.50;100311.97;16136582;19;129306;-58
2022/04/22 14:43:17;;;;;;;3.80;2.15;;;;;;;19.81;29.99;100308.09;16135855;19;131083;-58
2022/04/22 14:48:39;;;;;;;7.88;2.70;;;;;;;19.80;30.07;100298.09;16136392;19;129669;-57
2022/04/22 14:54:01;;;;;;;3.50;2.00;;;;;;;19.80;30.30;100295.31;16133906;19;129451;-58
2022/04/22 14:59:24;;;;;;;5.57;2.17;;;;;;;19.80;30.39;100300.88;16132646;19;130060;-57
2022/04/22 15:04:46;;;;;;;4.55;2.65;;;;;;;19.79;30.59;100293.63;16138048;19;129666;-59
2022/04/22 15:10:08;;;;;;;2.38;2.10;;;;;;;19.78;30.29;100297.50;16137461;19;129455;-58
2022/04/22 15:15:30;;;;;;;5.25;2.67;;;;;;;19.77;30.15;100290.28;16137401;19;130342;-59
2022/04/22 15:26:35;;;;;;;3.67;2.30;;;;;;;19.74;30.38;100290.81;16132288;19;132770;-59
2022/04/22 15:31:56;;;;;;;4.82;2.25;;;;;;;19.73;30.69;100289.16;16136066;19;129294;-58
2022/04/22 15:37:18;;;;;;;4.75;2.42;;;;;;;19.73;30.60;100291.94;16131569;19;129277;-58
2022/04/22 15:42:40;;;;;;;2.30;2.10;;;;;;;19.71;30.32;100299.69;16133021;19;129384;-57
2022/04/22 15:48:01;;;;;;;4.75;2.47;;;;;;;19.69;30.67;100291.63;16132088;19;129082;-58
2022/04/22 15:53:23;;;;;;;3.75;2.30;;;;;;;19.67;30.47;100286.38;16133560;19;129735;-59
2022/04/22 15:58:46;;;;;;;2.85;2.28;;;;;;;19.66;30.26;100281.91;16130852;19;130372;-59
2022/04/22 16:04:09;;;;;;;2.28;2.08;;;;;;;19.65;30.72;100283.03;16128684;19;130092;-59
2022/04/22 16:09:31;;;;;;;3.67;2.08;;;;;;;19.64;30.56;100278.56;16127996;19;129610;-59
2022/04/22 16:20:35;;;;;;;3.45;2.20;;;;;;;19.61;30.54;100292.16;16128945;19;129488;-58
2022/04/22 16:25:57;;;;;;;2.38;2.00;;;;;;;19.57;30.85;100286.28;16136461;19;129049;-57
2022/04/22 16:31:22;;;;;;;6.90;2.50;;;;;;;19.54;30.41;100286.84;16132236;19;130189;-59
2022/04/22 16:36:44;;;;;;;5.00;2.30;;;;;;;19.53;30.91;100285.16;16130892;19;131758;-57
2022/04/22 16:42:06;;;;;;;4.15;2.20;;;;;;;19.52;30.97;100281.53;16128835;19;130307;-58
2022/04/22 16:47:28;;;;;;;3.45;2.38;;;;;;;19.51;31.03;100292.91;16126626;19;130301;-58
2022/04/22 16:52:50;;;;;;;8.98;4.15;;;;;;;19.50;30.97;100280.16;16128929;19;130270;-55
2022/04/22 16:58:11;;;;;;;7.15;3.10;;;;;;;19.50;31.03;100280.16;16135851;19;129917;-57
2022/04/22 17:03:33;;;;;;;10.73;3.38;;;;;;;19.50;30.84;100285.69;16140724;19;129418;-57
2022/04/22 17:08:56;;;;;;;11.65;3.58;;;;;;;19.49;30.75;100289.56;16143470;19;130372;-55
2022/04/22 17:25:39;;;;;;;16.88;5.55;;;;;;;19.57;30.83;100272.41;16135098;19;130197;-56
2022/04/22 17:31:02;;;;;;;9.35;5.30;;;;;;;19.86;30.84;100277.56;16139996;19;129581;-53
2022/04/22 17:36:24;;;;;;;7.13;4.00;;;;;;;20.21;30.87;100281.59;16140314;19;129298;-56
2022/04/22 17:41:46;;;;;;;9.23;3.78;;;;;;;20.53;30.23;100285.31;16143665;19;132698;-57
2022/04/22 17:47:09;;;;;;;8.40;3.85;;;;;;;20.80;30.12;100287.84;16141981;19;129086;-52
2022/04/22 17:52:31;;;;;;;6.07;3.15;;;;;;;21.03;29.61;100288.44;16139481;19;129375;-58
2022/04/22 17:57:52;;;;;;;10.25;3.17;;;;;;;21.18;29.69;100285.63;16138470;19;129007;-55
2022/04/22 18:03:14;;;;;;;7.63;3.50;;;;;;;21.23;29.20;100298.75;16138555;19;129652;-58
2022/04/22 18:08:37;;;;;;;6.70;3.25;;;;;;;21.21;29.52;100293.44;16135109;19;129833;-56
2022/04/22 18:13:59;;;;;;;12.60;3.80;;;;;;;21.15;29.50;100296.50;16131610;19;128924;-56
2022/04/22 18:19:22;;;;;;;20.20;3.53;;;;;;;21.09;29.78;100295.66;16134129;19;129547;-58
2022/04/22 18:24:44;;;;;;;21.02;3.60;;;;;;;21.01;29.92;100301.78;16142061;19;129359;-58
2022/04/22 18:30:06;;;;;;;10.05;3.35;;;;;;;20.94;30.03;100306.78;16141903;19;131906;-58
2022/04/22 18:35:28;;;;;;;9.77;2.67;;;;;;;20.85;29.82;100303.75;16142322;19;129497;-58
2022/04/22 18:40:59;;;;;;;11.50;2.75;;;;;;;20.75;30.01;100304.53;16133556;19;128963;-59
2022/04/22 18:46:27;;;;;;;7.65;3.00;;;;;;;20.66;30.53;100311.75;16139588;19;129655;-58
2022/04/22 18:51:52;;;;;;;9.48;2.95;;;;;;;20.61;30.39;100315.34;16138854;19;129516;-59
2022/04/22 18:57:14;;;;;;;15.00;2.73;;;;;;;20.58;30.74;100305.59;16139793;19;129691;-59
2022/04/22 19:02:37;;;;;;;12.43;2.50;;;;;;;20.56;30.52;100307.00;16139810;19;129184;-58
2022/04/22 19:07:59;;;;;;;9.13;2.55;;;;;;;20.59;30.50;100310.03;16138100;19;129547;-58
2022/04/22 19:13:21;;;;;;;7.10;2.33;;;;;;;20.80;30.71;100312.88;16131212;19;129419;-62
2022/04/22 19:18:45;;;;;;;19.83;3.10;;;;;;;21.05;30.56;100314.88;16133595;19;131199;-59
2022/04/22 19:24:07;;;;;;;10.63;2.90;;;;;;;21.28;30.30;100318.19;16137493;19;129458;-59
2022/04/22 19:29:29;;;;;;;15.07;2.35;;;;;;;21.50;30.10;100315.13;16137829;19;129261;-59
2022/04/22 19:34:50;;;;;;;14.70;2.83;;;;;;;21.65;29.90;100317.06;16136123;19;129976;-57
2022/04/22 19:45:54;;;;;;;18.25;2.70;;;;;;;21.87;29.93;100321.44;16136755;19;129401;-58
2022/04/22 19:51:16;;;;;;;14.25;2.60;;;;;;;21.89;30.45;100315.59;16136795;19;129353;-58
2022/04/22 19:56:38;;;;;;;17.50;2.95;;;;;;;21.86;30.50;100321.75;16135315;19;129323;-58
2022/04/22 20:02:00;;;;;;;11.85;2.28;;;;;;;21.77;30.25;100313.13;16135168;19;129785;-59
2022/04/22 20:07:22;;;;;;;17.23;3.03;;;;;;;21.67;30.90;100312.03;16134032;19;129359;-58
2022/04/22 20:12:46;;;;;;;12.48;2.38;;;;;;;21.60;30.60;100310.66;16130501;19;128891;-58
2022/04/22 20:18:08;;;;;;;9.35;2.35;;;;;;;21.50;31.19;100298.44;16132293;19;129132;-58
2022/04/22 20:23:30;;;;;;;10.80;2.03;;;;;;;21.43;31.43;100302.59;16133730;19;129611;-58
2022/04/22 20:28:52;;;;;;;12.65;2.13;;;;;;;21.39;31.29;100307.91;16134162;19;129466;-58
2022/04/22 20:34:14;;;;;;;6.47;2.00;;;;;;;21.32;31.55;100312.88;16148322;19;129945;-57
2022/04/22 20:45:16;;;;;;;7.88;1.92;;;;;;;21.19;31.37;100315.13;16148619;19;129128;-56
2022/04/22 20:50:37;;;;;;;8.10;2.00;;;;;;;21.13;31.90;100316.25;16145635;19;129675;-57
2022/04/22 20:55:59;;;;;;;5.60;2.03;;;;;;;21.06;31.64;100304.56;16146514;19;128880;-57
2022/04/22 21:01:21;;;;;;;6.88;2.42;;;;;;;20.99;32.00;100312.34;16143173;19;130196;-58
2022/04/22 21:06:44;;;;;;;8.60;2.30;;;;;;;20.90;31.72;100312.06;16145426;19;129832;-61
2022/04/22 21:12:06;;;;;;;9.15;2.35;;;;;;;20.88;31.90;100306.78;16140633;19;131531;-58
2022/04/22 21:17:29;;;;;;;10.68;2.78;;;;;;;20.85;31.65;100315.69;16139048;19;130555;-58
2022/04/22 21:22:50;;;;;;;8.95;2.28;;;;;;;20.81;31.62;100313.72;16144113;19;129063;-58
2022/04/22 21:28:13;;;;;;;7.25;2.30;;;;;;;20.76;31.69;100317.34;16141653;19;130350;-58
2022/04/22 21:33:34;;;;;;;4.60;2.10;;;;;;;20.69;31.76;100311.16;16140495;19;129334;-57
2022/04/22 21:38:56;;;;;;;4.32;2.25;;;;;;;20.62;31.68;100321.72;16137215;19;131284;-57
2022/04/22 21:44:18;;;;;;;6.30;2.53;;;;;;;20.54;31.93;100314.75;16140004;19;130039;-58
2022/04/22 21:49:40;;;;;;;5.25;2.47;;;;;;;20.48;32.09;100319.47;16138944;19;130084;-58
2022/04/22 21:55:02;;;;;;;4.18;1.83;;;;;;;20.42;32.08;100324.19;16130875;19;130015;-57
2022/04/22 22:00:44;;;;;;;4.05;2.03;;;;;;;20.39;31.75;100329.44;16134962;19;130899;-59
2022/04/22 22:06:08;;;;;;;5.70;1.98;;;;;;;20.33;31.76;100327.75;16138009;19;129736;-57
2022/04/22 22:11:31;;;;;;;3.42;2.33;;;;;;;20.28;31.77;100323.00;16136515;19;129920;-59
2022/04/22 22:16:52;;;;;;;4.57;1.83;;;;;;;20.24;32.01;100317.19;16140503;19;130693;-57
2022/04/22 22:22:14;;;;;;;6.35;2.30;;;;;;;20.20;32.00;100310.47;16133690;19;129454;-59
2022/04/22 22:27:36;;;;;;;2.20;1.92;;;;;;;20.18;31.71;100318.28;16141790;19;129768;-58
2022/04/22 22:32:58;;;;;;;2.63;1.75;;;;;;;20.14;31.61;100314.38;16138624;19;130703;-58
2022/04/22 22:38:19;;;;;;;2.58;1.80;;;;;;;20.11;31.86;100312.13;16140328;19;129244;-57
2022/04/22 22:43:41;;;;;;;6.40;2.00;;;;;;;20.08;31.84;100310.72;16139374;19;129225;-57
2022/04/22 22:49:03;;;;;;;4.28;2.20;;;;;;;20.03;31.40;100299.59;16139842;19;129462;-57
2022/04/22 22:54:25;;;;;;;1.95;1.70;;;;;;;20.02;31.76;100305.44;16134145;19;130610;-66
2022/04/22 22:59:46;;;;;;;2.42;1.63;;;;;;;19.98;31.53;100314.25;16132847;19;130625;-63
2022/04/22 23:05:08;;;;;;;4.15;1.58;;;;;;;19.97;31.59;100312.59;16138434;19;129863;-59
2022/04/22 23:10:30;;;;;;;2.30;1.50;;;;;;;19.93;31.45;100311.47;16138086;19;130436;-63
2022/04/22 23:15:53;;;;;;;3.95;1.90;;;;;;;19.91;31.79;100312.84;16129753;19;129949;-67
2022/04/22 23:21:17;;;;;;;3.63;1.90;;;;;;;19.87;31.38;100301.44;16130605;19;130037;-66
2022/04/22 23:26:40;;;;;;;2.70;1.50;;;;;;;19.85;31.41;100303.66;16138299;19;128935;-71
2022/04/22 23:32:02;;;;;;;2.97;1.85;;;;;;;19.83;31.42;100300.28;16137927;19;129025;-65
2022/04/22 23:37:24;;;;;;;1.95;1.70;;;;;;;19.80;31.63;100295.31;16134144;19;129789;-59
2022/04/22 23:42:46;;;;;;;3.22;1.85;;;;;;;19.77;31.62;100291.09;16132713;19;129869;-65
2022/04/22 23:48:08;;;;;;;3.50;1.63;;;;;;;19.76;31.61;100291.38;16135091;19;129302;-60
2022/04/22 23:53:31;;;;;;;2.38;1.75;;;;;;;19.74;31.71;100296.38;16130870;19;129996;-66
2022/04/22 23:58:52;;;;;;;3.08;1.80;;;;;;;19.73;31.36;100286.38;16132663;19;129902;-59
